Time;durP1;ratioP1;P1;durP2;ratioP2;P2;SDS_P1;SDS_P2;PMS_P1;PMS_P2;Temp;Humidity;BMP_temperature;BMP_pressure;BME280_temperature;BME280_humidity;BME280_pressure;Samples;Min_cycle;Max_cycle;Signal;HPM_P1;HPM_P2
2021/05/17 00:00:11;;;;;;;8.50;3.30;;;;;;;;;;5071071;28;20032;-65
2021/05/17 00:02:37;;;;;;;7.10;2.77;;;;;;;;;;5067518;28;20039;-65
2021/05/17 00:05:03;;;;;;;8.27;3.03;;;;;;;;;;5050530;28;20119;-65
2021/05/17 00:07:28;;;;;;;10.07;4.07;;;;;;;;;;5052200;28;20029;-65
2021/05/17 00:09:53;;;;;;;11.33;3.83;;;;;;;;;;5050309;28;20032;-65
2021/05/17 00:12:19;;;;;;;10.33;3.63;;;;;;;;;;5050718;28;20037;-65
2021/05/17 00:14:44;;;;;;;12.97;3.60;;;;;;;;;;5049666;28;20024;-65
2021/05/17 00:17:10;;;;;;;11.10;3.80;;;;;;;;;;5051463;28;20055;-65
2021/05/17 00:19:35;;;;;;;11.43;4.07;;;;;;;;;;5052630;28;20087;-65
2021/05/17 00:22:00;;;;;;;10.00;2.83;;;;;;;;;;5050545;28;20029;-65
2021/05/17 00:24:26;;;;;;;9.40;3.00;;;;;;;;;;5051954;28;20037;-65
2021/05/17 00:26:51;;;;;;;8.53;3.07;;;;;;;;;;5051691;28;20032;-65
2021/05/17 00:29:17;;;;;;;9.43;3.43;;;;;;;;;;5051564;28;20024;-65
2021/05/17 00:31:43;;;;;;;11.87;3.67;;;;;;;;;;5051002;28;20032;-65
2021/05/17 00:34:08;;;;;;;10.07;3.80;;;;;;;;;;5050363;28;20044;-65
2021/05/17 00:36:34;;;;;;;10.30;4.50;;;;;;;;;;5050026;28;20029;-65
2021/05/17 00:39:00;;;;;;;10.27;3.70;;;;;;;;;;5050594;28;20078;-65
2021/05/17 00:41:28;;;;;;;10.07;3.43;;;;;;;;;;5051583;28;20036;-65
2021/05/17 00:43:54;;;;;;;19.00;4.87;;;;;;;;;;5051983;28;20442;-65
2021/05/17 00:46:20;;;;;;;13.83;3.97;;;;;;;;;;5051435;28;20036;-65
2021/05/17 00:48:46;;;;;;;17.07;5.00;;;;;;;;;;5053667;28;20024;-65
2021/05/17 00:51:11;;;;;;;17.20;5.17;;;;;;;;;;5049022;28;20112;-65
2021/05/17 00:53:37;;;;;;;15.93;4.70;;;;;;;;;;5053253;28;20024;-65
2021/05/17 00:56:03;;;;;;;15.87;4.77;;;;;;;;;;5050868;28;20467;-65
2021/05/17 00:58:28;;;;;;;12.63;3.70;;;;;;;;;;5051165;28;20040;-65
2021/05/17 01:00:53;;;;;;;10.47;3.17;;;;;;;;;;5053407;28;20037;-65
2021/05/17 01:03:20;;;;;;;8.87;3.50;;;;;;;;;;5056389;28;20473;-66
2021/05/17 01:05:45;;;;;;;13.57;3.83;;;;;;;;;;5072607;28;20108;-66
2021/05/17 01:08:20;;;;;;;18.90;4.33;;;;;;;;;;5072704;28;20056;-66
2021/05/17 01:10:45;;;;;;;15.30;4.37;;;;;;;;;;5073373;28;20029;-65
2021/05/17 01:13:11;;;;;;;14.27;4.37;;;;;;;;;;5071043;28;20051;-65
2021/05/17 01:15:36;;;;;;;19.50;5.13;;;;;;;;;;5072132;28;20472;-65
2021/05/17 01:18:02;;;;;;;16.77;5.13;;;;;;;;;;5064349;28;20067;-65
2021/05/17 01:20:31;;;;;;;15.37;4.60;;;;;;;;;;5069952;28;20031;-65
2021/05/17 01:23:32;;;;;;;15.70;4.43;;;;;;;;;;5070838;28;20381;-65
2021/05/17 01:25:55;;;;;;;19.23;4.90;;;;;;;;;;5070905;28;20488;-65
2021/05/17 01:28:22;;;;;;;20.90;4.87;;;;;;;;;;5070895;28;20453;-65
2021/05/17 01:30:49;;;;;;;23.27;5.10;;;;;;;;;;5072521;28;20056;-65
2021/05/17 01:33:14;;;;;;;20.43;5.37;;;;;;;;;;5073211;28;20100;-65
2021/05/17 01:35:41;;;;;;;15.37;4.87;;;;;;;;;;5072190;28;20104;-65
2021/05/17 01:38:07;;;;;;;18.63;5.40;;;;;;;;;;5070490;28;20424;-65
2021/05/17 01:40:34;;;;;;;24.00;5.77;;;;;;;;;;5065105;28;20029;-65
2021/05/17 01:43:00;;;;;;;17.40;5.30;;;;;;;;;;5072183;28;20017;-65
2021/05/17 01:45:27;;;;;;;23.43;6.00;;;;;;;;;;5073431;28;20032;-65
2021/05/17 01:47:52;;;;;;;24.10;5.73;;;;;;;;;;5071132;28;20021;-65
2021/05/17 01:50:17;;;;;;;20.77;5.80;;;;;;;;;;5068525;28;20016;-65
2021/05/17 01:52:43;;;;;;;21.80;5.63;;;;;;;;;;5070470;28;20028;-65
2021/05/17 01:55:09;;;;;;;25.00;5.47;;;;;;;;;;5069933;28;20029;-65
2021/05/17 01:57:34;;;;;;;24.00;6.70;;;;;;;;;;5066953;28;20381;-65
2021/05/17 02:00:00;;;;;;;20.03;5.63;;;;;;;;;;5071711;28;20024;-65
2021/05/17 02:02:26;;;;;;;19.80;6.00;;;;;;;;;;5071932;28;20020;-65
2021/05/17 02:04:52;;;;;;;23.40;6.17;;;;;;;;;;5071643;28;20547;-65
2021/05/17 02:07:18;;;;;;;31.93;7.03;;;;;;;;;;5070411;28;20075;-65
2021/05/17 02:09:43;;;;;;;24.87;7.70;;;;;;;;;;5071112;28;20476;-65
2021/05/17 02:12:09;;;;;;;21.13;5.40;;;;;;;;;;5069679;28;20032;-65
2021/05/17 02:14:35;;;;;;;28.03;6.60;;;;;;;;;;5072064;28;20035;-65
2021/05/17 02:17:00;;;;;;;32.77;7.57;;;;;;;;;;5071842;28;20020;-65
2021/05/17 02:19:26;;;;;;;29.20;6.93;;;;;;;;;;5065451;28;20033;-65
2021/05/17 02:21:51;;;;;;;25.13;6.17;;;;;;;;;;5072853;28;20032;-65
2021/05/17 02:24:17;;;;;;;24.47;6.63;;;;;;;;;;5069371;28;20046;-65
2021/05/17 02:26:43;;;;;;;32.67;7.13;;;;;;;;;;5072163;28;20016;-65
2021/05/17 02:29:10;;;;;;;34.23;7.37;;;;;;;;;;5069928;28;20020;-65
2021/05/17 02:31:35;;;;;;;28.90;6.23;;;;;;;;;;5071553;28;20020;-65
2021/05/17 02:34:01;;;;;;;27.10;6.93;;;;;;;;;;5067840;28;20071;-65
2021/05/17 02:36:26;;;;;;;29.23;7.00;;;;;;;;;;5071878;28;20029;-65
2021/05/17 02:38:52;;;;;;;31.33;7.03;;;;;;;;;;5071060;28;20024;-65
2021/05/17 02:41:20;;;;;;;32.90;7.33;;;;;;;;;;5071641;28;20385;-65
2021/05/17 02:43:46;;;;;;;33.57;7.27;;;;;;;;;;5058957;28;20028;-65
2021/05/17 02:46:11;;;;;;;30.07;6.97;;;;;;;;;;5065900;28;20017;-65
2021/05/17 02:48:41;;;;;;;28.90;7.30;;;;;;;;;;5061689;28;20024;-65
2021/05/17 02:51:08;;;;;;;27.97;7.07;;;;;;;;;;5071307;28;20025;-65
2021/05/17 02:53:33;;;;;;;27.73;7.30;;;;;;;;;;5072427;28;20017;-65
2021/05/17 02:56:07;;;;;;;38.30;8.17;;;;;;;;;;5071833;28;20028;-65
2021/05/17 02:58:35;;;;;;;33.33;7.63;;;;;;;;;;5070828;28;20402;-65
2021/05/17 03:01:05;;;;;;;33.70;7.53;;;;;;;;;;5056715;28;20032;-65
2021/05/17 03:03:34;;;;;;;39.27;7.70;;;;;;;;;;5068193;28;20041;-65
2021/05/17 03:06:07;;;;;;;34.33;8.23;;;;;;;;;;5063789;28;20059;-65
2021/05/17 03:08:39;;;;;;;31.80;8.53;;;;;;;;;;5069007;28;20465;-65
2021/05/17 03:11:05;;;;;;;43.13;7.95;;;;;;;;;;5070336;28;20017;-65
2021/05/17 03:13:31;;;;;;;37.10;8.37;;;;;;;;;;5071106;28;20036;-65
2021/05/17 03:15:57;;;;;;;41.83;8.70;;;;;;;;;;5071797;28;20054;-65
2021/05/17 03:18:22;;;;;;;41.00;8.47;;;;;;;;;;5069926;28;20478;-65
2021/05/17 03:20:48;;;;;;;43.43;8.47;;;;;;;;;;5074356;28;20023;-65
2021/05/17 03:23:14;;;;;;;38.77;8.43;;;;;;;;;;5067138;28;20340;-65
2021/05/17 03:25:44;;;;;;;34.87;8.93;;;;;;;;;;5075138;28;20040;-65
2021/05/17 03:28:09;;;;;;;35.13;7.40;;;;;;;;;;5075664;28;20406;-65
2021/05/17 03:30:34;;;;;;;42.50;8.80;;;;;;;;;;5075155;28;20095;-65
2021/05/17 03:33:00;;;;;;;39.07;8.40;;;;;;;;;;5075949;28;20377;-65
2021/05/17 03:35:25;;;;;;;31.47;7.83;;;;;;;;;;5074174;28;20154;-65
2021/05/17 03:37:50;;;;;;;29.60;6.67;;;;;;;;;;5073536;28;20020;-65
2021/05/17 03:40:17;;;;;;;26.03;6.33;;;;;;;;;;5070827;28;20035;-65
2021/05/17 03:42:42;;;;;;;23.30;5.73;;;;;;;;;;5076490;28;20538;-65
2021/05/17 03:45:09;;;;;;;22.23;4.93;;;;;;;;;;5073269;28;20020;-65
2021/05/17 03:47:34;;;;;;;12.97;3.83;;;;;;;;;;5076027;28;20028;-65
2021/05/17 03:49:59;;;;;;;16.93;5.20;;;;;;;;;;5073555;28;20407;-65
2021/05/17 03:52:24;;;;;;;22.80;6.03;;;;;;;;;;5075861;28;20029;-65
2021/05/17 03:54:50;;;;;;;22.40;6.17;;;;;;;;;;5072329;28;20076;-65
2021/05/17 03:57:15;;;;;;;16.83;5.70;;;;;;;;;;5074874;28;20548;-65
2021/05/17 03:59:43;;;;;;;17.67;5.87;;;;;;;;;;5071580;28;20079;-65
2021/05/17 04:02:08;;;;;;;16.57;5.50;;;;;;;;;;5067683;28;20099;-65
2021/05/17 04:04:45;;;;;;;18.40;6.00;;;;;;;;;;5059801;28;20141;-65
2021/05/17 04:13:19;;;;;;;13.67;4.97;;;;;;;;;;5057759;28;20086;-65
2021/05/17 04:15:20;;;;;;;11.60;5.00;;;;;;;;;;5055372;28;20100;-65
2021/05/17 04:17:48;;;;;;;13.77;5.47;;;;;;;;;;5071067;28;20067;-66
2021/05/17 04:20:13;;;;;;;17.97;5.60;;;;;;;;;;5064054;28;20477;-66
2021/05/17 04:22:39;;;;;;;13.17;5.77;;;;;;;;;;5060576;28;20063;-66
2021/05/17 04:25:04;;;;;;;11.47;4.73;;;;;;;;;;5055745;28;20465;-66
2021/05/17 04:27:29;;;;;;;12.40;4.80;;;;;;;;;;5048910;28;20026;-66
2021/05/17 04:29:55;;;;;;;10.23;4.67;;;;;;;;;;5047888;28;20052;-66
2021/05/17 04:32:20;;;;;;;8.80;4.23;;;;;;;;;;5050486;28;20021;-66
2021/05/17 04:34:45;;;;;;;10.07;5.27;;;;;;;;;;5054934;28;20409;-67
2021/05/17 04:37:11;;;;;;;12.13;4.43;;;;;;;;;;5052311;28;20025;-68
2021/05/17 04:39:36;;;;;;;9.90;4.87;;;;;;;;;;5057868;28;20086;-69
2021/05/17 04:42:01;;;;;;;10.10;5.17;;;;;;;;;;5054602;28;20021;-68
2021/05/17 04:44:27;;;;;;;10.53;4.53;;;;;;;;;;5063899;28;20021;-68
2021/05/17 04:46:52;;;;;;;9.77;4.43;;;;;;;;;;5043411;28;20144;-67
2021/05/17 04:49:18;;;;;;;10.20;4.70;;;;;;;;;;5050621;28;20075;-67
2021/05/17 04:51:43;;;;;;;11.43;4.83;;;;;;;;;;5058718;28;20025;-67
2021/05/17 04:54:08;;;;;;;13.13;5.53;;;;;;;;;;5053410;28;20048;-66
2021/05/17 04:56:33;;;;;;;11.20;5.20;;;;;;;;;;5053526;28;20020;-66
2021/05/17 04:58:59;;;;;;;11.97;4.90;;;;;;;;;;5050327;28;20076;-66
2021/05/17 05:01:24;;;;;;;11.20;5.43;;;;;;;;;;5053405;28;20033;-66
2021/05/17 05:03:49;;;;;;;12.63;5.57;;;;;;;;;;5058988;28;20119;-66
2021/05/17 05:06:14;;;;;;;10.97;5.37;;;;;;;;;;5071554;28;20059;-66
2021/05/17 05:08:40;;;;;;;12.37;5.80;;;;;;;;;;5068000;28;21688;-66
2021/05/17 05:11:05;;;;;;;12.70;5.43;;;;;;;;;;5069795;28;20210;-66
2021/05/17 05:13:30;;;;;;;16.30;6.10;;;;;;;;;;5073483;28;20056;-66
2021/05/17 05:15:55;;;;;;;11.37;5.53;;;;;;;;;;5073230;28;20028;-66
2021/05/17 05:18:21;;;;;;;10.67;5.13;;;;;;;;;;5068339;28;20035;-66
2021/05/17 05:20:46;;;;;;;12.03;5.70;;;;;;;;;;5071191;28;20052;-66
2021/05/17 05:23:15;;;;;;;13.93;5.97;;;;;;;;;;5072339;28;20377;-66
2021/05/17 05:28:25;;;;;;;15.60;5.73;;;;;;;;;;5072337;28;20024;-66
2021/05/17 05:33:22;;;;;;;17.58;6.72;;;;;;;;;;5069225;28;20469;-66
2021/05/17 05:35:48;;;;;;;16.40;6.10;;;;;;;;;;5061269;28;20016;-66
2021/05/17 05:38:14;;;;;;;14.90;6.20;;;;;;;;;;5061415;28;20024;-66
2021/05/17 05:40:39;;;;;;;14.80;6.80;;;;;;;;;;5070393;28;20067;-67
2021/05/17 05:43:04;;;;;;;13.10;6.33;;;;;;;;;;5069714;28;20094;-67
2021/05/17 05:45:32;;;;;;;14.63;6.67;;;;;;;;;;5072985;28;20020;-67
2021/05/17 05:47:58;;;;;;;16.73;7.00;;;;;;;;;;5063272;28;20470;-67
2021/05/17 05:50:23;;;;;;;16.17;5.83;;;;;;;;;;5068876;28;20103;-67
2021/05/17 05:52:48;;;;;;;15.50;6.67;;;;;;;;;;5067862;28;20028;-67
2021/05/17 05:55:14;;;;;;;14.87;6.73;;;;;;;;;;5066732;28;20411;-67
2021/05/17 05:57:43;;;;;;;14.07;6.70;;;;;;;;;;5069249;28;20031;-67
2021/05/17 06:00:10;;;;;;;14.57;7.03;;;;;;;;;;5069113;28;20029;-67
2021/05/17 06:02:37;;;;;;;15.10;6.47;;;;;;;;;;5071721;28;20088;-67
2021/05/17 06:05:02;;;;;;;15.17;6.63;;;;;;;;;;5050325;28;20017;-67
2021/05/17 06:07:27;;;;;;;14.30;7.10;;;;;;;;;;5050148;28;20024;-67
2021/05/17 06:09:53;;;;;;;14.30;6.37;;;;;;;;;;5057146;28;20017;-67
2021/05/17 06:12:19;;;;;;;12.50;6.03;;;;;;;;;;5066309;28;20032;-67
2021/05/17 06:14:46;;;;;;;13.80;6.23;;;;;;;;;;5072366;28;20012;-68
2021/05/17 06:17:11;;;;;;;13.50;5.77;;;;;;;;;;5049914;28;20370;-68
2021/05/17 06:19:37;;;;;;;11.40;5.67;;;;;;;;;;5052249;28;20020;-68
2021/05/17 06:22:02;;;;;;;12.40;5.33;;;;;;;;;;5052212;28;20024;-68
2021/05/17 06:24:28;;;;;;;11.77;5.47;;;;;;;;;;5052084;28;20025;-68
2021/05/17 06:26:54;;;;;;;12.17;5.37;;;;;;;;;;5051633;28;20087;-67
2021/05/17 06:29:19;;;;;;;11.50;5.57;;;;;;;;;;5053525;28;20029;-67
2021/05/17 06:31:46;;;;;;;11.20;5.40;;;;;;;;;;5052727;28;20720;-70
2021/05/17 06:34:12;;;;;;;15.43;5.87;;;;;;;;;;5045569;28;20061;-70
2021/05/17 06:36:37;;;;;;;13.17;5.50;;;;;;;;;;5044805;28;20076;-70
2021/05/17 06:39:05;;;;;;;11.60;6.10;;;;;;;;;;5052774;28;20025;-70
2021/05/17 06:41:31;;;;;;;11.80;5.43;;;;;;;;;;5050486;28;20025;-69
2021/05/17 06:43:56;;;;;;;11.27;5.63;;;;;;;;;;5033323;28;20029;-69
2021/05/17 06:46:21;;;;;;;14.80;5.80;;;;;;;;;;5048563;28;20461;-69
2021/05/17 06:48:47;;;;;;;11.57;5.77;;;;;;;;;;5052798;28;20119;-69
2021/05/17 06:51:15;;;;;;;13.33;6.10;;;;;;;;;;5051869;28;20048;-69
2021/05/17 06:53:41;;;;;;;11.87;5.80;;;;;;;;;;5053747;28;20032;-69
2021/05/17 06:56:09;;;;;;;12.27;5.60;;;;;;;;;;5047781;28;20024;-69
2021/05/17 06:58:46;;;;;;;11.60;5.47;;;;;;;;;;5035038;28;20039;-69
2021/05/17 07:01:12;;;;;;;14.00;5.50;;;;;;;;;;5050550;28;20035;-69
2021/05/17 07:03:37;;;;;;;11.57;5.60;;;;;;;;;;5062286;28;20037;-69
2021/05/17 07:06:03;;;;;;;15.33;5.87;;;;;;;;;;5071868;28;20105;-69
2021/05/17 07:11:40;;;;;;;12.67;5.93;;;;;;;;;;5071378;28;20571;-69
2021/05/17 07:14:06;;;;;;;12.80;5.87;;;;;;;;;;5059579;28;20024;-69
2021/05/17 07:16:31;;;;;;;13.23;6.17;;;;;;;;;;5064654;28;20439;-71
2021/05/17 07:18:56;;;;;;;11.93;6.57;;;;;;;;;;5072495;28;20043;-72
2021/05/17 07:23:47;;;;;;;14.10;6.03;;;;;;;;;;5072138;28;20040;-73
2021/05/17 07:26:16;;;;;;;13.90;6.13;;;;;;;;;;5071588;28;20369;-71
2021/05/17 07:28:41;;;;;;;12.40;6.00;;;;;;;;;;5071888;28;20032;-71
2021/05/17 07:31:08;;;;;;;11.73;5.93;;;;;;;;;;5072116;28;20021;-70
2021/05/17 07:33:34;;;;;;;13.47;6.60;;;;;;;;;;5072127;28;20028;-70
2021/05/17 07:35:59;;;;;;;14.13;6.60;;;;;;;;;;5072013;28;20384;-70
2021/05/17 07:38:32;;;;;;;11.77;5.43;;;;;;;;;;5072243;28;20078;-71
2021/05/17 07:40:59;;;;;;;10.13;5.70;;;;;;;;;;5070618;28;20107;-70
2021/05/17 07:43:25;;;;;;;9.10;4.83;;;;;;;;;;5071956;28;20024;-70
2021/05/17 07:45:50;;;;;;;10.83;5.57;;;;;;;;;;5072364;28;20099;-70
2021/05/17 07:48:16;;;;;;;12.07;5.27;;;;;;;;;;5071919;28;20036;-70
2021/05/17 07:50:41;;;;;;;10.90;5.23;;;;;;;;;;5064765;28;20373;-70
2021/05/17 07:53:07;;;;;;;9.90;4.93;;;;;;;;;;5066490;28;20028;-70
2021/05/17 07:55:32;;;;;;;9.10;4.50;;;;;;;;;;5065918;28;20039;-70
2021/05/17 07:57:57;;;;;;;8.50;4.87;;;;;;;;;;5071273;28;20036;-70
2021/05/17 08:00:24;;;;;;;10.27;4.80;;;;;;;;;;5071687;28;20036;-70
2021/05/17 08:02:49;;;;;;;8.83;4.60;;;;;;;;;;5071490;28;20024;-70
2021/05/17 08:05:14;;;;;;;7.67;4.03;;;;;;;;;;5068804;28;20033;-69
2021/05/17 08:07:40;;;;;;;8.70;4.60;;;;;;;;;;5074947;28;20020;-69
2021/05/17 08:10:06;;;;;;;8.73;4.73;;;;;;;;;;5075317;28;20171;-69
2021/05/17 08:12:31;;;;;;;9.00;4.80;;;;;;;;;;5069555;28;20438;-69
2021/05/17 08:14:57;;;;;;;10.10;5.10;;;;;;;;;;5071463;28;20439;-69
2021/05/17 08:17:23;;;;;;;9.17;4.80;;;;;;;;;;5072246;28;20465;-69
2021/05/17 08:19:48;;;;;;;8.20;5.07;;;;;;;;;;5074800;28;20082;-69
2021/05/17 08:22:13;;;;;;;9.87;5.67;;;;;;;;;;5074484;28;20078;-69
2021/05/17 08:24:39;;;;;;;10.67;5.57;;;;;;;;;;5073747;28;20024;-69
2021/05/17 08:27:05;;;;;;;10.60;5.50;;;;;;;;;;5064604;28;20081;-69
2021/05/17 08:29:33;;;;;;;11.23;6.03;;;;;;;;;;5070525;28;20116;-69
2021/05/17 08:31:59;;;;;;;11.33;5.90;;;;;;;;;;5075044;28;20031;-69
2021/05/17 08:34:24;;;;;;;13.23;6.17;;;;;;;;;;5075412;28;20031;-69
2021/05/17 08:36:49;;;;;;;13.10;6.40;;;;;;;;;;5070992;28;20029;-69
2021/05/17 08:39:15;;;;;;;12.93;6.80;;;;;;;;;;5074818;28;20028;-69
2021/05/17 08:41:40;;;;;;;12.60;6.67;;;;;;;;;;5063359;28;20036;-70
2021/05/17 08:44:05;;;;;;;12.17;6.27;;;;;;;;;;5075316;28;20032;-72
2021/05/17 08:46:31;;;;;;;9.90;5.20;;;;;;;;;;5074222;28;20496;-73
2021/05/17 08:48:56;;;;;;;10.97;6.27;;;;;;;;;;5075169;28;20043;-72
2021/05/17 08:51:32;;;;;;;14.13;6.53;;;;;;;;;;5072588;28;20024;-71
2021/05/17 08:54:03;;;;;;;12.60;6.57;;;;;;;;;;5075232;28;20425;-70
2021/05/17 08:56:28;;;;;;;13.33;6.73;;;;;;;;;;5068144;28;20051;-69
2021/05/17 08:58:54;;;;;;;12.33;6.37;;;;;;;;;;5067506;28;20468;-70
2021/05/17 09:01:19;;;;;;;12.97;6.80;;;;;;;;;;5066648;28;20074;-70
2021/05/17 09:03:52;;;;;;;11.67;6.53;;;;;;;;;;5072942;28;20048;-71
2021/05/17 09:06:22;;;;;;;12.63;6.70;;;;;;;;;;5067021;28;20020;-70
2021/05/17 09:08:47;;;;;;;11.63;7.00;;;;;;;;;;5069557;28;20031;-70
2021/05/17 09:11:15;;;;;;;12.07;6.60;;;;;;;;;;5072761;28;20017;-69
2021/05/17 09:13:40;;;;;;;12.43;7.20;;;;;;;;;;5072589;28;20016;-70
2021/05/17 09:16:42;;;;;;;11.93;6.97;;;;;;;;;;5075420;28;20055;-69
2021/05/17 09:19:14;;;;;;;13.45;7.38;;;;;;;;;;5074112;28;20052;-69
2021/05/17 09:21:54;;;;;;;14.95;7.53;;;;;;;;;;5073929;28;20036;-69
2021/05/17 09:24:33;;;;;;;15.90;8.47;;;;;;;;;;5074801;28;20364;-69
2021/05/17 09:26:58;;;;;;;16.60;8.37;;;;;;;;;;5071744;28;20020;-69
2021/05/17 09:29:23;;;;;;;15.80;7.90;;;;;;;;;;5074390;28;20036;-69
2021/05/17 09:31:48;;;;;;;14.47;8.10;;;;;;;;;;5073594;28;20033;-69
2021/05/17 09:34:14;;;;;;;15.30;7.57;;;;;;;;;;5074040;28;20036;-69
2021/05/17 09:36:40;;;;;;;15.50;7.63;;;;;;;;;;5073425;28;20380;-69
2021/05/17 09:39:06;;;;;;;14.00;6.90;;;;;;;;;;5069577;28;20032;-69
2021/05/17 09:41:54;;;;;;;10.20;5.30;;;;;;;;;;5073202;28;20107;-69
2021/05/17 09:44:21;;;;;;;11.57;5.90;;;;;;;;;;5068974;28;20135;-69
2021/05/17 09:47:05;;;;;;;12.23;5.70;;;;;;;;;;5064278;28;20038;-74
2021/05/17 09:49:32;;;;;;;11.37;5.60;;;;;;;;;;5051880;28;20111;-73
2021/05/17 09:52:08;;;;;;;12.83;6.03;;;;;;;;;;5073125;28;20031;-72
2021/05/17 09:54:53;;;;;;;8.63;4.53;;;;;;;;;;5073939;28;20020;-71
2021/05/17 09:57:30;;;;;;;8.87;4.77;;;;;;;;;;5045527;28;20037;-70
2021/05/17 09:59:56;;;;;;;10.13;5.33;;;;;;;;;;5072374;28;20024;-70
2021/05/17 10:02:25;;;;;;;11.07;5.63;;;;;;;;;;5072596;28;20063;-70
2021/05/17 10:04:51;;;;;;;9.97;4.60;;;;;;;;;;5072621;28;20050;-70
2021/05/17 10:07:17;;;;;;;8.13;4.30;;;;;;;;;;5072030;28;20016;-70
2021/05/17 10:09:43;;;;;;;10.97;5.40;;;;;;;;;;5067515;28;20028;-70
2021/05/17 10:12:08;;;;;;;8.37;4.80;;;;;;;;;;5069207;28;20033;-70
2021/05/17 10:14:34;;;;;;;6.10;2.87;;;;;;;;;;5072705;28;20021;-69
2021/05/17 10:16:59;;;;;;;2.30;1.00;;;;;;;;;;5071600;28;20032;-69
2021/05/17 10:19:24;;;;;;;3.60;1.27;;;;;;;;;;5073316;28;20503;-69
2021/05/17 10:21:50;;;;;;;4.17;1.13;;;;;;;;;;5071379;28;20020;-69
2021/05/17 10:24:15;;;;;;;3.30;0.90;;;;;;;;;;5066356;28;20111;-69
2021/05/17 10:26:40;;;;;;;1.50;0.70;;;;;;;;;;5067585;28;20027;-69
2021/05/17 10:29:06;;;;;;;2.87;0.77;;;;;;;;;;5059594;28;20037;-69
2021/05/17 10:31:32;;;;;;;4.53;0.80;;;;;;;;;;5072289;28;20525;-69
2021/05/17 10:34:02;;;;;;;1.40;0.70;;;;;;;;;;5072603;28;20024;-69
2021/05/17 10:36:46;;;;;;;2.77;0.60;;;;;;;;;;5060585;28;20415;-70
2021/05/17 10:39:12;;;;;;;1.67;0.80;;;;;;;;;;5072743;28;20453;-71
2021/05/17 10:41:55;;;;;;;1.20;0.60;;;;;;;;;;5067279;28;20028;-71
2021/05/17 10:46:50;;;;;;;3.10;1.07;;;;;;;;;;5072606;28;20476;-70
2021/05/17 10:49:18;;;;;;;1.93;0.90;;;;;;;;;;5072251;28;20029;-70
2021/05/17 10:51:44;;;;;;;2.00;1.10;;;;;;;;;;5072735;28;20024;-70
2021/05/17 10:54:24;;;;;;;1.97;0.90;;;;;;;;;;5072172;28;20079;-71
2021/05/17 11:02:11;;;;;;;3.23;1.10;;;;;;;;;;5071498;28;20027;-71
2021/05/17 11:04:38;;;;;;;2.77;1.10;;;;;;;;;;5059115;28;20044;-71
2021/05/17 11:07:09;;;;;;;3.37;1.30;;;;;;;;;;5064951;28;20032;-70
2021/05/17 11:09:41;;;;;;;2.97;1.20;;;;;;;;;;5060731;28;20052;-71
2021/05/17 11:12:39;;;;;;;2.50;1.47;;;;;;;;;;5070226;28;20518;-71
2021/05/17 11:15:05;;;;;;;3.63;1.60;;;;;;;;;;5067661;28;20032;-70
2021/05/17 11:17:51;;;;;;;3.20;1.60;;;;;;;;;;5064379;28;20036;-70
2021/05/17 11:20:35;;;;;;;4.13;1.47;;;;;;;;;;5067728;28;20068;-69
2021/05/17 11:23:00;;;;;;;2.20;1.20;;;;;;;;;;5072406;28;20048;-69
2021/05/17 11:25:43;;;;;;;4.83;1.60;;;;;;;;;;5071305;28;20055;-69
2021/05/17 11:28:09;;;;;;;3.73;1.50;;;;;;;;;;5066339;28;20020;-69
2021/05/17 11:30:38;;;;;;;4.03;1.60;;;;;;;;;;5063503;28;20025;-69
2021/05/17 11:33:17;;;;;;;3.10;1.57;;;;;;;;;;5072030;28;20544;-69
2021/05/17 11:36:13;;;;;;;4.73;1.70;;;;;;;;;;5071453;28;20020;-69
2021/05/17 11:38:58;;;;;;;3.23;1.57;;;;;;;;;;5056157;28;20445;-69
2021/05/17 11:41:23;;;;;;;4.33;1.40;;;;;;;;;;5069988;28;20064;-68
2021/05/17 11:43:48;;;;;;;3.33;1.37;;;;;;;;;;5064720;28;20052;-69
2021/05/17 11:46:16;;;;;;;2.00;1.00;;;;;;;;;;5070537;28;20028;-69
2021/05/17 11:48:42;;;;;;;2.00;0.83;;;;;;;;;;5067288;28;20523;-69
2021/05/17 11:51:08;;;;;;;3.97;1.10;;;;;;;;;;5075169;28;20055;-69
2021/05/17 11:53:33;;;;;;;2.50;0.90;;;;;;;;;;5072955;28;20056;-69
2021/05/17 11:56:03;;;;;;;1.77;0.87;;;;;;;;;;5069629;28;20111;-70
2021/05/17 11:58:28;;;;;;;1.20;0.70;;;;;;;;;;5074042;28;20025;-70
2021/05/17 12:01:12;;;;;;;2.70;1.10;;;;;;;;;;5045149;28;20032;-70
2021/05/17 12:03:41;;;;;;;2.93;1.10;;;;;;;;;;5070935;28;20516;-70
2021/05/17 12:06:06;;;;;;;3.50;1.07;;;;;;;;;;5073941;28;20025;-70
2021/05/17 12:08:31;;;;;;;3.27;1.37;;;;;;;;;;5074695;28;20082;-69
2021/05/17 12:10:57;;;;;;;3.23;1.70;;;;;;;;;;5074586;28;20032;-69
2021/05/17 12:13:22;;;;;;;3.80;1.60;;;;;;;;;;5074202;28;20043;-69
2021/05/17 12:15:48;;;;;;;4.63;1.67;;;;;;;;;;5075155;28;20024;-69
2021/05/17 12:18:13;;;;;;;3.60;2.10;;;;;;;;;;5074022;28;20031;-69
2021/05/17 12:20:39;;;;;;;3.85;1.60;;;;;;;;;;5069592;28;20033;-69
2021/05/17 12:23:04;;;;;;;3.08;1.95;;;;;;;;;;5070545;28;20024;-69
2021/05/17 12:25:29;;;;;;;4.03;2.30;;;;;;;;;;5073417;28;20035;-69
2021/05/17 12:27:55;;;;;;;5.32;2.10;;;;;;;;;;5069713;28;20090;-69
2021/05/17 12:30:21;;;;;;;4.35;2.05;;;;;;;;;;5075579;28;20036;-68
2021/05/17 12:32:51;;;;;;;5.68;2.33;;;;;;;;;;5073773;28;20454;-67
2021/05/17 12:35:24;;;;;;;4.13;2.50;;;;;;;;;;5072763;28;20503;-67
2021/05/17 12:37:49;;;;;;;6.65;2.60;;;;;;;;;;5071141;28;20021;-67
2021/05/17 12:40:21;;;;;;;4.50;2.55;;;;;;;;;;5068198;28;20419;-67
2021/05/17 12:42:57;;;;;;;4.43;2.10;;;;;;;;;;5061811;28;20082;-67
2021/05/17 12:45:22;;;;;;;6.30;2.40;;;;;;;;;;5068413;28;20027;-67
2021/05/17 12:47:47;;;;;;;4.43;1.95;;;;;;;;;;5074357;28;20020;-66
2021/05/17 12:50:33;;;;;;;2.53;1.40;;;;;;;;;;5071814;28;20016;-67
2021/05/17 12:53:12;;;;;;;3.05;1.35;;;;;;;;;;5070578;28;20113;-66
2021/05/17 12:55:41;;;;;;;3.17;1.60;;;;;;;;;;5074777;28;20396;-66
2021/05/17 12:58:07;;;;;;;2.95;1.60;;;;;;;;;;5073260;28;20066;-67
2021/05/17 13:00:38;;;;;;;2.60;1.15;;;;;;;;;;5068533;28;20025;-67
2021/05/17 13:03:09;;;;;;;3.65;1.40;;;;;;;;;;5073130;28;20056;-66
2021/05/17 13:05:49;;;;;;;3.15;1.70;;;;;;;;;;5074450;28;20044;-66
2021/05/17 13:08:14;;;;;;;2.85;1.60;;;;;;;;;;5071901;28;20362;-66
2021/05/17 13:10:56;;;;;;;3.40;2.10;;;;;;;;;;5074367;28;20090;-67
2021/05/17 13:13:21;;;;;;;;;;;;;;;;;;5074755;28;20033;-67
2021/05/17 13:16:00;;;;;;;4.22;1.83;;;;;;;;;;5072913;28;19958;-68
2021/05/17 13:18:30;;;;;;;3.97;1.63;;;;;;;;;;5060848;28;20300;-68
2021/05/17 13:21:05;;;;;;;3.33;1.63;;;;;;;;;;5068293;28;20233;-68
2021/05/17 13:23:51;;;;;;;3.42;1.58;;;;;;;;;;5060870;28;20073;-68
2021/05/17 13:31:45;;;;;;;4.83;2.43;;;;;;;;;;5063440;28;20028;-68
2021/05/17 13:34:10;;;;;;;5.90;2.50;;;;;;;;;;5072533;28;20013;-68
2021/05/17 13:36:36;;;;;;;7.37;2.50;;;;;;;;;;5070962;28;20028;-67
2021/05/17 13:39:01;;;;;;;4.93;2.70;;;;;;;;;;5073013;28;20024;-67
2021/05/17 13:41:33;;;;;;;5.60;2.40;;;;;;;;;;5072821;28;20531;-67
2021/05/17 13:43:59;;;;;;;4.73;2.73;;;;;;;;;;5072277;28;20136;-69
2021/05/17 13:46:25;;;;;;;6.60;3.50;;;;;;;;;;5073639;28;20103;-69
2021/05/17 13:48:52;;;;;;;5.47;3.23;;;;;;;;;;5072576;28;20489;-67
2021/05/17 13:51:18;;;;;;;7.87;3.00;;;;;;;;;;5065700;28;20553;-69
2021/05/17 13:53:44;;;;;;;5.00;2.70;;;;;;;;;;5069282;28;20598;-68
2021/05/17 13:56:09;;;;;;;4.10;1.90;;;;;;;;;;5073898;28;20059;-68
2021/05/17 13:58:35;;;;;;;3.43;1.87;;;;;;;;;;5071457;28;20025;-67
2021/05/17 14:01:00;;;;;;;4.40;1.90;;;;;;;;;;5069813;28;20483;-67
2021/05/17 14:03:27;;;;;;;4.13;1.97;;;;;;;;;;5066989;28;20045;-68
2021/05/17 14:05:52;;;;;;;3.27;1.80;;;;;;;;;;5072244;28;20028;-67
2021/05/17 14:08:17;;;;;;;3.57;1.80;;;;;;;;;;5071758;28;20024;-67
2021/05/17 14:10:43;;;;;;;4.20;1.67;;;;;;;;;;5072751;28;20099;-66
2021/05/17 14:13:08;;;;;;;5.85;2.08;;;;;;;;;;5068379;28;20059;-66
2021/05/17 14:15:33;;;;;;;4.60;2.00;;;;;;;;;;5072960;28;20032;-66
2021/05/17 14:17:59;;;;;;;3.05;1.83;;;;;;;;;;5073469;28;20024;-67
2021/05/17 14:20:24;;;;;;;3.38;1.90;;;;;;;;;;5071431;28;20054;-67
2021/05/17 14:22:53;;;;;;;3.40;1.90;;;;;;;;;;5073129;28;20017;-67
2021/05/17 14:25:18;;;;;;;5.20;2.08;;;;;;;;;;5071856;28;20025;-67
2021/05/17 14:27:43;;;;;;;3.40;2.08;;;;;;;;;;5072884;28;20017;-67
2021/05/17 14:30:11;;;;;;;3.53;1.92;;;;;;;;;;5068159;28;20040;-67
2021/05/17 14:32:37;;;;;;;3.40;1.70;;;;;;;;;;5073221;28;20409;-68
2021/05/17 14:35:02;;;;;;;2.78;1.63;;;;;;;;;;5069721;28;20101;-68
2021/05/17 14:37:28;;;;;;;3.78;1.85;;;;;;;;;;5066894;28;20020;-69
2021/05/17 14:39:53;;;;;;;4.03;1.90;;;;;;;;;;5070241;28;20107;-68
2021/05/17 14:42:18;;;;;;;3.55;2.00;;;;;;;;;;5071997;28;20512;-68
2021/05/17 14:44:44;;;;;;;4.75;2.13;;;;;;;;;;5064143;28;20029;-68
2021/05/17 14:47:09;;;;;;;3.45;1.98;;;;;;;;;;5061980;28;20026;-68
2021/05/17 14:49:35;;;;;;;4.38;2.00;;;;;;;;;;5071580;28;20024;-68
2021/05/17 14:52:01;;;;;;;4.25;2.00;;;;;;;;;;5071886;28;20077;-68
2021/05/17 14:54:26;;;;;;;4.07;1.70;;;;;;;;;;5065853;28;20025;-68
2021/05/17 14:56:52;;;;;;;3.80;1.20;;;;;;;;;;5068522;28;20465;-68
2021/05/17 14:59:17;;;;;;;3.57;1.10;;;;;;;;;;5067695;28;20017;-68
2021/05/17 15:01:42;;;;;;;3.03;1.33;;;;;;;;;;5069667;28;20509;-67
2021/05/17 15:04:08;;;;;;;3.27;1.40;;;;;;;;;;5062635;28;20045;-65
2021/05/17 15:06:33;;;;;;;3.30;1.47;;;;;;;;;;5056685;28;20030;-65